createdAt,value
2022-12-18T00:01:04.861Z,17.19
2022-12-18T00:03:31.573Z,16.77
2022-12-18T00:05:58.276Z,17.66
2022-12-18T00:08:24.922Z,17.89
2022-12-18T00:10:51.575Z,16.78
2022-12-18T00:13:19.406Z,17.93
2022-12-18T00:15:46.082Z,19.81
2022-12-18T00:18:16.079Z,20.11
2022-12-18T00:20:45.657Z,20.14
2022-12-18T00:23:12.281Z,20.20
2022-12-18T00:25:38.980Z,19.46
2022-12-18T00:28:05.620Z,18.33
2022-12-18T00:30:32.331Z,17.74
2022-12-18T00:32:58.969Z,16.05
2022-12-18T00:35:25.609Z,15.68
2022-12-18T00:37:52.243Z,15.31
2022-12-18T00:40:18.889Z,15.17
2022-12-18T00:42:45.525Z,13.82
2022-12-18T00:45:13.097Z,14.56
2022-12-18T00:47:40.190Z,13.93
2022-12-18T00:50:07.355Z,14.11
2022-12-18T00:52:34.007Z,14.85
2022-12-18T00:55:05.840Z,15.48
2022-12-18T00:57:32.958Z,15.92
2022-12-18T00:59:59.702Z,16.77
2022-12-18T01:02:26.465Z,16.87
2022-12-18T01:04:53.204Z,17.70
2022-12-18T01:07:19.834Z,18.63
2022-12-18T01:09:46.483Z,18.60
2022-12-18T01:12:13.105Z,18.05
2022-12-18T01:14:39.717Z,19.49
2022-12-18T01:17:06.353Z,20.75
2022-12-18T01:19:33.084Z,20.02
2022-12-18T01:21:59.761Z,20.52
2022-12-18T01:24:26.408Z,20.96
2022-12-18T01:26:53.045Z,21.88
2022-12-18T01:29:19.689Z,22.42
2022-12-18T01:31:46.400Z,22.50
2022-12-18T01:34:13.093Z,23.43
2022-12-18T01:36:39.726Z,23.03
2022-12-18T01:39:08.460Z,22.95
2022-12-18T01:41:35.597Z,23.41
2022-12-18T01:44:02.230Z,22.86
2022-12-18T01:46:28.849Z,22.52
2022-12-18T01:48:57.806Z,22.35
2022-12-18T01:51:24.942Z,24.52
2022-12-18T01:53:51.568Z,24.51
2022-12-18T01:56:19.645Z,24.25
2022-12-18T01:58:53.767Z,24.38
2022-12-18T02:01:22.156Z,24.67
2022-12-18T02:03:48.843Z,25.03
2022-12-18T02:06:15.320Z,25.18
2022-12-18T02:09:09.529Z,25.13
2022-12-18T02:11:47.328Z,27.36
2022-12-18T02:14:29.203Z,26.35
2022-12-18T02:17:11.920Z,26.98
2022-12-18T02:20:02.851Z,25.84
2022-12-18T02:23:02.183Z,26.20
2022-12-18T02:25:28.907Z,26.31
2022-12-18T02:27:55.540Z,25.99
2022-12-18T02:30:22.282Z,25.42
2022-12-18T02:32:51.733Z,25.51
2022-12-18T02:35:21.867Z,25.37
2022-12-18T02:37:48.506Z,25.85
2022-12-18T02:40:15.404Z,26.74
2022-12-18T02:42:42.153Z,26.20
2022-12-18T02:45:09.001Z,26.09
2022-12-18T02:47:38.404Z,26.44
2022-12-18T02:50:17.982Z,26.74
2022-12-18T02:53:10.838Z,26.43
2022-12-18T02:56:07.184Z,27.37
2022-12-18T02:58:35.608Z,26.09
2022-12-18T03:01:22.561Z,26.12
2022-12-18T03:03:55.553Z,26.86
2022-12-18T03:06:34.921Z,26.44
2022-12-18T03:09:03.714Z,27.40
2022-12-18T03:11:31.993Z,27.15
2022-12-18T03:13:58.721Z,27.32
2022-12-18T03:16:29.674Z,27.44
2022-12-18T03:19:01.910Z,28.74
2022-12-18T03:21:48.524Z,27.81
2022-12-18T03:24:15.165Z,27.42
2022-12-18T03:26:43.669Z,26.68
2022-12-18T03:29:13.462Z,27.22
2022-12-18T03:31:41.273Z,27.89
2022-12-18T03:34:14.587Z,28.30
2022-12-18T03:36:41.237Z,28.32
2022-12-18T03:39:07.854Z,28.76
2022-12-18T03:41:48.531Z,28.65
2022-12-18T03:44:16.133Z,29.12
2022-12-18T03:47:15.007Z,27.20
2022-12-18T03:50:00.300Z,27.60
2022-12-18T03:52:29.089Z,29.21
2022-12-18T03:54:56.284Z,28.18
2022-12-18T03:57:24.667Z,28.33
2022-12-18T03:59:53.302Z,27.43
2022-12-18T04:02:20.123Z,25.64
2022-12-18T04:04:46.874Z,26.83
2022-12-18T04:07:13.498Z,26.00
2022-12-18T04:09:40.201Z,25.34
2022-12-18T04:12:09.168Z,25.70
2022-12-18T04:14:35.824Z,25.31
2022-12-18T04:17:03.257Z,22.43
2022-12-18T04:19:29.903Z,20.11
2022-12-18T04:21:56.537Z,18.14
2022-12-18T04:24:23.198Z,18.17
2022-12-18T04:26:49.815Z,17.52
2022-12-18T04:29:16.447Z,17.65
2022-12-18T04:31:43.077Z,17.69
2022-12-18T04:34:09.699Z,18.47
2022-12-18T04:36:36.341Z,16.29
2022-12-18T04:39:03.001Z,15.95
2022-12-18T04:41:29.623Z,14.86
2022-12-18T04:43:56.315Z,14.36
2022-12-18T04:46:23.028Z,14.19
2022-12-18T04:48:49.693Z,14.12
2022-12-18T04:51:16.350Z,14.76
2022-12-18T04:53:43.204Z,14.54
2022-12-18T04:56:12.514Z,14.47
2022-12-18T04:58:39.400Z,14.08
2022-12-18T05:01:06.157Z,14.36
2022-12-18T05:03:32.849Z,14.18
2022-12-18T05:05:59.563Z,15.91
2022-12-18T05:08:26.364Z,15.52
2022-12-18T05:11:03.059Z,15.42
2022-12-18T05:13:29.758Z,15.11
2022-12-18T05:15:56.447Z,14.61
2022-12-18T05:18:23.842Z,16.48
2022-12-18T05:20:53.380Z,16.21
2022-12-18T05:23:20.086Z,15.51
2022-12-18T05:25:55.348Z,16.39
2022-12-18T05:28:21.976Z,17.45
2022-12-18T05:30:50.175Z,18.16
2022-12-18T05:33:16.928Z,18.02
2022-12-18T05:35:43.562Z,18.07
2022-12-18T05:38:10.190Z,19.64
2022-12-18T05:40:36.818Z,18.70
2022-12-18T05:43:06.148Z,17.08
2022-12-18T05:45:32.791Z,17.75
2022-12-18T05:47:59.454Z,17.28
2022-12-18T05:50:26.152Z,17.04
2022-12-18T05:52:52.786Z,15.67
2022-12-18T05:55:19.421Z,13.86
2022-12-18T05:57:46.056Z,15.55
2022-12-18T06:00:13.671Z,14.12
2022-12-18T06:02:40.440Z,14.03
2022-12-18T06:05:07.360Z,14.20
2022-12-18T06:07:33.976Z,13.75
2022-12-18T06:10:00.628Z,13.17
2022-12-18T06:12:27.266Z,12.43
2022-12-18T06:14:53.906Z,11.15
2022-12-18T06:17:20.608Z,10.66
2022-12-18T06:19:47.234Z,10.11
2022-12-18T06:22:13.876Z,9.99
2022-12-18T06:24:40.486Z,10.00
2022-12-18T06:27:07.109Z,9.78
2022-12-18T06:29:33.725Z,8.93
2022-12-18T06:32:00.398Z,10.03
2022-12-18T06:34:27.053Z,9.70
2022-12-18T06:36:53.693Z,9.03
2022-12-18T06:39:20.302Z,10.56
2022-12-18T06:41:46.952Z,16.55
2022-12-18T06:44:13.669Z,12.32
2022-12-18T06:46:40.334Z,10.16
2022-12-18T06:49:08.381Z,9.37
2022-12-18T06:51:34.994Z,8.76
2022-12-18T06:54:01.680Z,8.52
2022-12-18T06:56:28.371Z,8.79
2022-12-18T06:58:55.036Z,14.95
2022-12-18T07:01:21.797Z,12.95
2022-12-18T07:03:48.558Z,11.39
2022-12-18T07:06:18.853Z,11.44
2022-12-18T07:08:46.022Z,10.21
2022-12-18T07:11:12.773Z,8.91
2022-12-18T07:13:39.864Z,7.27
2022-12-18T07:16:17.052Z,6.75
2022-12-18T07:18:47.663Z,6.91
2022-12-18T07:21:15.806Z,7.02
2022-12-18T07:23:42.836Z,6.41
2022-12-18T07:26:11.309Z,6.74
2022-12-18T07:28:38.568Z,6.07
2022-12-18T07:31:06.145Z,6.42
2022-12-18T07:33:34.213Z,7.31
2022-12-18T07:36:01.577Z,6.32
2022-12-18T07:38:28.206Z,6.25
2022-12-18T07:40:55.147Z,6.39
2022-12-18T07:43:21.769Z,5.99
2022-12-18T07:45:50.356Z,6.78
2022-12-18T07:48:17.025Z,6.58
2022-12-18T07:50:43.686Z,6.68
2022-12-18T07:53:10.317Z,6.74
2022-12-18T07:56:05.318Z,5.96
2022-12-18T07:58:23.572Z,5.79
2022-12-18T08:00:50.217Z,5.98
2022-12-18T08:03:17.045Z,6.77
2022-12-18T08:05:43.700Z,9.15
2022-12-18T08:08:10.780Z,10.66
2022-12-18T08:10:38.459Z,10.14
2022-12-18T08:13:05.375Z,9.68
2022-12-18T08:15:32.200Z,9.07
2022-12-18T08:17:58.881Z,7.53
2022-12-18T08:20:25.522Z,6.93
2022-12-18T08:22:52.143Z,6.92
2022-12-18T08:25:18.759Z,7.12
2022-12-18T08:27:45.372Z,8.68
2022-12-18T08:30:12.306Z,9.61
2022-12-18T08:32:38.950Z,7.44
2022-12-18T08:35:06.345Z,6.45
2022-12-18T08:37:33.037Z,9.45
2022-12-18T08:39:59.719Z,21.16
2022-12-18T08:42:26.359Z,13.39
2022-12-18T08:44:53.024Z,14.65
2022-12-18T08:47:19.705Z,17.50
2022-12-18T08:49:46.345Z,51.53
2022-12-18T08:52:13.097Z,34.33
2022-12-18T08:54:39.724Z,35.44
2022-12-18T08:57:06.351Z,17.43
2022-12-18T08:59:32.992Z,10.06
2022-12-18T09:01:59.682Z,6.31
2022-12-18T09:04:26.389Z,5.31
2022-12-18T09:06:53.026Z,4.02
2022-12-18T09:09:19.648Z,3.86
2022-12-18T09:11:46.427Z,3.53
2022-12-18T09:14:13.061Z,3.37
2022-12-18T09:16:39.732Z,3.40
2022-12-18T09:19:06.572Z,3.52
2022-12-18T09:21:36.760Z,2.89
2022-12-18T09:24:04.164Z,2.73
2022-12-18T09:26:32.233Z,2.93
2022-12-18T09:28:58.881Z,2.98
2022-12-18T09:31:25.634Z,2.35
2022-12-18T09:33:52.425Z,2.43
2022-12-18T09:36:19.148Z,2.38
2022-12-18T09:38:45.790Z,2.60
2022-12-18T09:41:45.984Z,2.74
2022-12-18T09:44:31.812Z,3.52
2022-12-18T09:46:58.389Z,3.74
2022-12-18T09:49:26.604Z,3.85
2022-12-18T09:52:18.861Z,3.56
2022-12-18T09:55:13.602Z,3.22
2022-12-18T09:57:43.504Z,3.55
2022-12-18T10:00:10.433Z,3.80
2022-12-18T10:02:37.209Z,4.03
2022-12-18T10:05:10.752Z,4.10
2022-12-18T10:08:16.919Z,4.31
2022-12-18T10:10:51.314Z,4.22
2022-12-18T10:13:43.023Z,4.40
2022-12-18T10:16:20.574Z,5.10
2022-12-18T10:19:41.535Z,5.33
2022-12-18T10:22:10.541Z,4.97
2022-12-18T10:24:40.285Z,4.94
2022-12-18T10:27:15.254Z,5.28
2022-12-18T10:29:43.627Z,5.77
2022-12-18T10:32:15.310Z,5.48
2022-12-18T10:34:41.948Z,5.92
2022-12-18T10:37:12.840Z,6.36
2022-12-18T10:39:39.444Z,7.15
2022-12-18T10:42:17.438Z,7.28
2022-12-18T10:44:44.069Z,7.02
2022-12-18T10:47:13.777Z,8.13
2022-12-18T10:49:43.415Z,7.23
2022-12-18T10:52:21.331Z,8.07
2022-12-18T10:54:53.599Z,8.23
2022-12-18T10:57:25.842Z,8.41
2022-12-18T10:59:54.055Z,7.93
2022-12-18T11:02:35.548Z,7.94
2022-12-18T11:05:02.330Z,8.21
2022-12-18T11:07:48.375Z,8.84
2022-12-18T11:10:17.980Z,8.40
2022-12-18T11:12:44.638Z,7.19
2022-12-18T11:15:30.615Z,7.19
2022-12-18T11:17:57.229Z,7.26
2022-12-18T11:20:33.433Z,7.60
2022-12-18T11:23:01.637Z,8.18
2022-12-18T11:25:32.935Z,7.92
2022-12-18T11:28:05.616Z,8.42
2022-12-18T11:30:33.949Z,8.27
2022-12-18T11:33:08.107Z,7.76
2022-12-18T11:35:52.997Z,9.96
2022-12-18T11:38:29.902Z,8.59
2022-12-18T11:41:01.622Z,10.37
2022-12-18T11:43:30.742Z,14.69
2022-12-18T11:46:02.629Z,16.95
2022-12-18T11:48:39.318Z,18.60
2022-12-18T11:51:06.932Z,17.61
2022-12-18T11:53:33.681Z,20.23
2022-12-18T11:56:42.985Z,19.32
2022-12-18T11:59:25.168Z,20.29
2022-12-18T12:02:15.687Z,19.79
2022-12-18T12:05:00.537Z,21.13
2022-12-18T12:07:48.310Z,21.11
2022-12-18T12:10:27.101Z,21.38
2022-12-18T12:12:53.608Z,21.14
2022-12-18T12:15:20.140Z,21.42
2022-12-18T12:17:52.628Z,21.43
2022-12-18T12:20:49.574Z,20.61
2022-12-18T12:23:26.162Z,20.56
2022-12-18T12:26:05.069Z,20.35
2022-12-18T12:29:02.187Z,20.75
2022-12-18T12:31:48.180Z,21.72
2022-12-18T12:34:31.521Z,21.07
2022-12-18T12:37:22.331Z,21.72
2022-12-18T12:39:48.987Z,21.43
2022-12-18T12:42:36.665Z,21.76
2022-12-18T12:45:06.098Z,21.41
2022-12-18T12:47:42.742Z,21.29
2022-12-18T12:50:14.828Z,20.86
2022-12-18T12:52:46.913Z,21.13
2022-12-18T12:55:21.396Z,21.44
2022-12-18T12:57:59.973Z,21.35
2022-12-18T13:00:26.888Z,22.08
2022-12-18T13:03:20.887Z,22.20
2022-12-18T13:05:51.977Z,21.72
2022-12-18T13:08:35.322Z,20.86
2022-12-18T13:11:02.564Z,20.96
2022-12-18T13:13:30.306Z,20.77
2022-12-18T13:16:07.518Z,20.46
2022-12-18T13:18:34.141Z,21.44
2022-12-18T13:21:03.222Z,21.43
2022-12-18T13:23:35.249Z,21.37
2022-12-18T13:26:08.280Z,21.02
2022-12-18T13:28:34.777Z,21.60
2022-12-18T13:31:02.164Z,21.69
2022-12-18T13:33:34.860Z,21.07
2022-12-18T13:36:04.036Z,20.44
2022-12-18T13:38:34.282Z,20.89
2022-12-18T13:41:21.181Z,21.14
2022-12-18T13:43:53.581Z,20.94
2022-12-18T13:46:29.538Z,21.40
2022-12-18T13:49:07.133Z,21.36
2022-12-18T13:51:34.400Z,20.19
2022-12-18T13:54:18.300Z,20.71
2022-12-18T13:56:45.932Z,20.74
2022-12-18T13:59:26.839Z,20.72
2022-12-18T14:01:58.406Z,21.10
2022-12-18T14:04:29.631Z,21.25
2022-12-18T14:07:04.092Z,20.23
2022-12-18T14:09:32.536Z,21.62
2022-12-18T14:11:59.372Z,21.25
2022-12-18T14:14:32.389Z,21.01
2022-12-18T14:17:00.682Z,21.09
2022-12-18T14:19:27.610Z,20.66
2022-12-18T14:21:54.245Z,20.81
2022-12-18T14:24:22.180Z,20.77
2022-12-18T14:26:50.001Z,20.73
2022-12-18T14:29:20.206Z,20.82
2022-12-18T14:32:08.436Z,21.06
2022-12-18T14:34:38.535Z,21.19
2022-12-18T14:37:05.403Z,20.77
2022-12-18T14:39:32.059Z,19.74
2022-12-18T14:41:58.715Z,21.20
2022-12-18T14:44:25.450Z,21.13
2022-12-18T14:46:52.114Z,20.56
2022-12-18T14:49:31.080Z,20.79
2022-12-18T14:52:05.355Z,20.65
2022-12-18T14:54:32.121Z,21.89
2022-12-18T14:57:04.562Z,21.66
2022-12-18T14:59:31.357Z,21.32
2022-12-18T15:02:17.678Z,20.87
2022-12-18T15:04:44.680Z,21.54
2022-12-18T15:07:16.726Z,21.64
2022-12-18T15:09:45.132Z,22.01
2022-12-18T15:12:27.368Z,21.19
2022-12-18T15:14:54.155Z,21.79
2022-12-18T15:17:23.120Z,22.46
2022-12-18T15:19:53.234Z,21.63
2022-12-18T15:22:24.059Z,22.54
2022-12-18T15:24:50.767Z,22.21
2022-12-18T15:27:26.106Z,22.60
2022-12-18T15:30:23.265Z,21.56
2022-12-18T15:32:50.145Z,20.53
2022-12-18T15:35:19.046Z,22.04
2022-12-18T15:37:45.704Z,23.80
2022-12-18T15:40:17.442Z,23.12
2022-12-18T15:42:44.202Z,24.24
2022-12-18T15:45:14.140Z,22.44
2022-12-18T15:47:41.416Z,22.68
2022-12-18T15:50:08.517Z,22.64
2022-12-18T15:52:47.461Z,22.70
2022-12-18T15:55:14.710Z,22.89
2022-12-18T15:57:41.349Z,21.82
2022-12-18T16:00:12.833Z,22.27
2022-12-18T16:02:39.667Z,26.00
2022-12-18T16:05:14.702Z,25.20
2022-12-18T16:07:41.381Z,32.11
2022-12-18T16:10:08.283Z,48.78
2022-12-18T16:12:35.437Z,81.34
2022-12-18T16:15:02.847Z,88.82
2022-12-18T16:17:29.486Z,34.84
2022-12-18T16:19:56.350Z,33.57
2022-12-18T16:22:24.941Z,40.25
2022-12-18T16:24:52.062Z,50.32
2022-12-18T16:27:18.827Z,59.44
2022-12-18T16:29:45.456Z,149.84
2022-12-18T16:32:16.937Z,131.82
2022-12-18T16:34:43.599Z,82.46
2022-12-18T16:37:11.346Z,65.42
2022-12-18T16:39:38.867Z,37.45
2022-12-18T16:42:16.525Z,35.51
2022-12-18T16:44:43.489Z,31.72
2022-12-18T16:47:10.176Z,31.93
2022-12-18T16:49:38.441Z,39.23
2022-12-18T16:52:05.796Z,39.95
2022-12-18T16:54:32.429Z,43.90
2022-12-18T16:56:59.129Z,44.86
2022-12-18T16:59:25.801Z,39.55
2022-12-18T17:01:52.633Z,40.20
2022-12-18T17:04:19.346Z,35.29
2022-12-18T17:06:46.022Z,35.47
2022-12-18T17:09:13.229Z,43.26
2022-12-18T17:11:39.887Z,44.39
2022-12-18T17:14:11.093Z,38.24
2022-12-18T17:16:37.793Z,39.08
2022-12-18T17:19:09.668Z,37.46
2022-12-18T17:21:40.348Z,36.91
2022-12-18T17:24:07.602Z,39.49
2022-12-18T17:26:34.218Z,43.52
2022-12-18T17:29:00.853Z,41.40
2022-12-18T17:31:28.651Z,42.64
2022-12-18T17:33:55.341Z,39.32
2022-12-18T17:36:22.107Z,35.52
2022-12-18T17:38:52.220Z,33.66
2022-12-18T17:41:18.869Z,31.80
2022-12-18T17:43:50.397Z,31.68
2022-12-18T17:46:17.084Z,32.30
2022-12-18T17:48:43.746Z,34.29
2022-12-18T17:51:10.748Z,35.42
2022-12-18T17:53:38.719Z,36.37
2022-12-18T17:56:05.897Z,33.77
2022-12-18T17:58:36.210Z,32.84
2022-12-18T18:01:04.303Z,34.01
2022-12-18T18:03:31.959Z,32.72
2022-12-18T18:05:59.395Z,36.49
2022-12-18T18:08:26.563Z,38.43
2022-12-18T18:10:53.330Z,36.85
2022-12-18T18:13:24.489Z,34.24
2022-12-18T18:15:57.679Z,34.61
2022-12-18T18:18:24.517Z,37.51
2022-12-18T18:20:51.541Z,36.60
2022-12-18T18:23:24.674Z,34.35
2022-12-18T18:25:51.405Z,34.30
2022-12-18T18:28:18.705Z,34.13
2022-12-18T18:30:45.437Z,32.78
2022-12-18T18:33:12.284Z,32.85
2022-12-18T18:35:58.347Z,31.51
2022-12-18T18:38:25.057Z,31.61
2022-12-18T18:41:01.357Z,34.11
2022-12-18T18:43:28.010Z,33.48
2022-12-18T18:45:58.035Z,33.89
2022-12-18T18:48:25.307Z,34.49
2022-12-18T18:51:22.700Z,38.12
2022-12-18T18:53:50.958Z,39.92
2022-12-18T18:56:56.444Z,41.58
2022-12-18T18:59:06.674Z,53.40
2022-12-18T19:01:33.423Z,163.55
2022-12-18T19:04:00.597Z,94.27
2022-12-18T19:06:27.999Z,71.14
2022-12-18T19:08:55.114Z,54.73
2022-12-18T19:11:22.430Z,53.00
2022-12-18T19:13:49.069Z,51.00
2022-12-18T19:16:15.818Z,47.05
2022-12-18T19:18:42.858Z,39.72
2022-12-18T19:21:09.850Z,38.81
2022-12-18T19:23:36.607Z,40.18
2022-12-18T19:26:27.443Z,42.13
2022-12-18T19:28:50.777Z,38.00
2022-12-18T19:31:22.818Z,35.93
2022-12-18T19:33:51.533Z,35.34
2022-12-18T19:36:22.773Z,54.41
2022-12-18T19:38:49.999Z,52.43
2022-12-18T19:41:16.916Z,35.35
2022-12-18T19:43:44.965Z,36.95
2022-12-18T19:46:15.771Z,41.34
2022-12-18T19:48:43.105Z,34.61
2022-12-18T19:51:39.367Z,34.80
2022-12-18T19:54:06.018Z,36.90
2022-12-18T19:56:33.646Z,36.94
2022-12-18T19:59:00.604Z,37.63
2022-12-18T20:01:27.452Z,35.39
2022-12-18T20:03:56.120Z,37.24
2022-12-18T20:06:34.878Z,35.23
2022-12-18T20:09:05.642Z,34.10
2022-12-18T20:11:32.937Z,35.92
2022-12-18T20:14:02.505Z,35.65
2022-12-18T20:16:29.519Z,36.14
2022-12-18T20:18:57.354Z,36.89
2022-12-18T20:21:26.898Z,35.37
2022-12-18T20:23:53.594Z,33.78
2022-12-18T20:26:20.354Z,32.11
2022-12-18T20:28:47.042Z,36.70
2022-12-18T20:31:14.235Z,37.52
2022-12-18T20:33:41.659Z,34.17
2022-12-18T20:36:12.384Z,32.93
2022-12-18T20:38:39.572Z,36.12
2022-12-18T20:41:08.482Z,35.18
2022-12-18T20:43:35.323Z,36.54
2022-12-18T20:46:07.136Z,38.79
2022-12-18T20:48:33.820Z,40.96
2022-12-18T20:51:02.053Z,37.74
2022-12-18T20:53:30.649Z,33.88
2022-12-18T20:55:57.292Z,33.34
2022-12-18T20:58:24.195Z,32.95
2022-12-18T21:00:51.014Z,32.39
2022-12-18T21:03:17.785Z,32.15
2022-12-18T21:05:44.638Z,33.21
2022-12-18T21:08:11.273Z,37.86
2022-12-18T21:10:39.931Z,37.36
2022-12-18T21:13:07.279Z,35.20
2022-12-18T21:15:35.407Z,33.70
2022-12-18T21:18:02.044Z,34.97
2022-12-18T21:20:28.909Z,37.27
2022-12-18T21:22:59.155Z,36.12
2022-12-18T21:25:38.861Z,35.06
2022-12-18T21:28:05.473Z,34.20
2022-12-18T21:30:32.769Z,33.69
2022-12-18T21:32:59.486Z,33.07
2022-12-18T21:35:26.382Z,33.61
2022-12-18T21:37:55.884Z,33.74
2022-12-18T21:40:22.567Z,33.53
2022-12-18T21:42:49.489Z,31.93
2022-12-18T21:45:16.150Z,30.75
2022-12-18T21:47:42.777Z,30.51
2022-12-18T21:50:09.457Z,31.00
2022-12-18T21:52:36.142Z,29.77
2022-12-18T21:55:08.977Z,32.51
2022-12-18T21:57:39.846Z,32.77
2022-12-18T22:00:07.543Z,32.56
2022-12-18T22:02:34.435Z,32.29
2022-12-18T22:05:01.236Z,31.25
2022-12-18T22:07:27.928Z,33.01
2022-12-18T22:09:54.880Z,35.14
2022-12-18T22:12:21.562Z,34.46
2022-12-18T22:14:48.216Z,29.99
2022-12-18T22:17:14.946Z,27.76
2022-12-18T22:19:43.067Z,27.14
2022-12-18T22:22:10.286Z,26.71
2022-12-18T22:24:37.039Z,28.61
2022-12-18T22:27:03.695Z,28.15
2022-12-18T22:29:30.853Z,27.31
2022-12-18T22:31:59.352Z,27.41
2022-12-18T22:34:26.015Z,26.48
2022-12-18T22:36:52.756Z,28.02
2022-12-18T22:39:21.090Z,29.15
2022-12-18T22:41:48.060Z,29.19
2022-12-18T22:44:15.017Z,28.78
2022-12-18T22:46:46.026Z,28.68
2022-12-18T22:49:16.935Z,26.98
2022-12-18T22:51:43.821Z,28.92
2022-12-18T22:54:10.511Z,28.40
2022-12-18T22:56:37.186Z,29.30
2022-12-18T22:59:03.900Z,30.18
2022-12-18T23:01:30.907Z,29.35
2022-12-18T23:03:58.075Z,29.47
2022-12-18T23:06:26.037Z,29.08
2022-12-18T23:08:56.022Z,28.41
2022-12-18T23:11:22.854Z,28.61
2022-12-18T23:13:49.890Z,28.42
2022-12-18T23:16:17.488Z,27.49
2022-12-18T23:18:44.233Z,27.81
2022-12-18T23:21:15.287Z,27.30
2022-12-18T23:23:43.712Z,26.99
2022-12-18T23:26:19.237Z,27.45
2022-12-18T23:28:45.964Z,27.36
2022-12-18T23:31:16.722Z,25.87
2022-12-18T23:33:44.529Z,26.37
2022-12-18T23:36:11.670Z,26.22
2022-12-18T23:38:38.335Z,26.69
2022-12-18T23:41:13.139Z,26.54
2022-12-18T23:43:40.033Z,27.02
2022-12-18T23:46:11.188Z,25.85
2022-12-18T23:48:38.407Z,27.34
2022-12-18T23:51:06.908Z,27.60
2022-12-18T23:53:33.534Z,27.03
2022-12-18T23:56:00.148Z,26.94
2022-12-18T23:58:27.114Z,27.17
